| time (UTC) | temp F | wind direction | speed knots | gust knots | rain 1hr in | rain 24hr in | rain mn in | humidity % | barometer mb |
| 20260507155503 | 59 | 112 | 1.7 | 7.0 | 0.00 | 0.00 | 0.00 | 52 | 1014.5 |
| 20260507155003 | 59 | 148 | 2.6 | 6.1 | 0.00 | 0.00 | 0.00 | 52 | 1014.6 |
| 20260507154503 | 59 | 157 | 2.6 | 6.1 | 0.00 | 0.00 | 0.00 | 52 | 1014.7 |
| 20260507154005 | 59 | 129 | 1.7 | 5.2 | 0.00 | 0.00 | 0.00 | 52 | 1014.7 |
| 20260507153504 | 58 | 126 | 1.7 | 6.1 | 0.00 | 0.00 | 0.00 | 53 | 1014.8 |
| 20260507153003 | 58 | 144 | 2.6 | 7.0 | 0.00 | 0.00 | 0.00 | 53 | 1014.8 |
| 20260507152504 | 59 | 140 | 2.6 | 7.0 | 0.00 | 0.00 | 0.00 | 53 | 1014.8 |
| 20260507152004 | 59 | 141 | 2.6 | 7.0 | 0.00 | 0.00 | 0.00 | 53 | 1014.8 |
| 20260507151503 | 59 | 141 | 2.6 | 7.0 | 0.00 | 0.00 | 0.00 | 52 | 1014.9 |
| 20260507151003 | 59 | 136 | 2.6 | 7.8 | 0.00 | 0.00 | 0.00 | 53 | 1014.9 |
| 20260507150503 | 59 | 123 | 2.6 | 7.8 | 0.00 | 0.00 | 0.00 | 53 | 1015.0 |
| 20260507150005 | 59 | 139 | 2.6 | 7.0 | 0.00 | 0.00 | 0.00 | 52 | 1014.9 |
| 20260507145504 | 59 | 160 | 2.6 | 5.2 | 0.00 | 0.00 | 0.00 | 51 | 1014.9 |
| 20260507145003 | 59 | 169 | 2.6 | 6.1 | 0.00 | 0.00 | 0.00 | 53 | 1014.9 |
| 20260507144718 | 59 | 165 | 2.6 | 6.1 | 0.00 | 0.00 | 0.00 | 52 | 1014.9 |
| 20260507144003 | 59 | 146 | 1.7 | 5.2 | 0.00 | 0.00 | 0.00 | 52 | 1014.9 |
| 20260507143503 | 59 | 144 | 1.7 | 5.2 | 0.00 | 0.00 | 0.00 | 53 | 1015.0 |
| 20260507143219 | 59 | 149 | 1.7 | 5.2 | 0.00 | 0.00 | 0.00 | 52 | 1015.0 |
| 20260507142504 | 59 | 137 | 1.7 | 6.1 | 0.00 | 0.00 | 0.00 | 52 | 1015.0 |
| 20260507142003 | 59 | 126 | 1.7 | 6.1 | 0.00 | 0.00 | 0.00 | 52 | 1015.0 |
| 20260507141503 | 59 | 151 | 1.7 | 5.2 | 0.00 | 0.00 | 0.00 | 52 | 1015.1 |
| 20260507141004 | 59 | 161 | 2.6 | 5.2 | 0.00 | 0.00 | 0.00 | 51 | 1015.1 |
| 20260507140503 | 59 | 164 | 2.6 | 5.2 | 0.00 | 0.00 | 0.00 | 51 | 1015.2 |
| 20260507140005 | 59 | 155 | 2.6 | 5.2 | 0.00 | 0.00 | 0.00 | 51 | 1015.2 |
| 20260507135503 | 59 | 155 | 2.6 | 5.2 | 0.00 | 0.00 | 0.00 | 50 | 1015.2 |
| 20260507135003 | 60 | 169 | 3.5 | 6.1 | 0.00 | 0.00 | 0.00 | 50 | 1015.2 |
| 20260507134503 | 60 | 170 | 3.5 | 7.0 | 0.00 | 0.00 | 0.00 | 50 | 1015.2 |
| 20260507134003 | 60 | 165 | 2.6 | 7.0 | 0.00 | 0.00 | 0.00 | 52 | 1015.2 |
| 20260507133718 | 60 | 160 | 2.6 | 7.0 | 0.00 | 0.00 | 0.00 | 52 | 1015.2 |
| 20260507133004 | 60 | 161 | 2.6 | 7.0 | 0.00 | 0.00 | 0.00 | 51 | 1015.3 |
| 20260507132503 | 60 | 160 | 2.6 | 7.0 | 0.00 | 0.00 | 0.00 | 51 | 1015.2 |
| 20260507132003 | 60 | 146 | 2.6 | 7.0 | 0.00 | 0.00 | 0.00 | 50 | 1015.2 |
| 20260507131504 | 61 | 166 | 3.5 | 8.7 | 0.00 | 0.00 | 0.00 | 49 | 1015.4 |
| 20260507131003 | 62 | 173 | 4.3 | 9.6 | 0.00 | 0.00 | 0.00 | 50 | 1015.3 |
| 20260507130504 | 62 | 168 | 3.5 | 9.6 | 0.00 | 0.00 | 0.00 | 49 | 1015.3 |
| 20260507130005 | 63 | 181 | 4.3 | 9.6 | 0.00 | 0.00 | 0.00 | 50 | 1015.3 |
| 20260507125504 | 62 | 184 | 4.3 | 8.7 | 0.00 | 0.00 | 0.00 | 48 | 1015.3 |
| 20260507125004 | 62 | 172 | 2.6 | 8.7 | 0.00 | 0.00 | 0.00 | 50 | 1015.3 |
| 20260507124503 | 61 | 171 | 2.6 | 7.0 | 0.00 | 0.00 | 0.00 | 52 | 1015.3 |
| 20260507124003 | 61 | 173 | 3.5 | 8.7 | 0.00 | 0.00 | 0.00 | 51 | 1015.3 |
| 20260507123503 | 61 | 179 | 2.6 | 8.7 | 0.00 | 0.00 | 0.00 | 52 | 1015.3 |
| 20260507123003 | 61 | 181 | 1.7 | 5.2 | 0.00 | 0.00 | 0.00 | 52 | 1015.2 |
| 20260507122504 | 61 | 175 | 1.7 | 6.1 | 0.00 | 0.00 | 0.00 | 52 | 1015.3 |
| 20260507122004 | 61 | 180 | 3.5 | 7.0 | 0.00 | 0.00 | 0.00 | 51 | 1015.3 |
| 20260507121503 | 61 | 168 | 3.5 | 7.8 | 0.00 | 0.00 | 0.00 | 51 | 1015.4 |
| 20260507121003 | 62 | 133 | 2.6 | 7.8 | 0.00 | 0.00 | 0.00 | 48 | 1015.4 |
| 20260507120503 | 61 | 161 | 2.6 | 7.0 | 0.00 | 0.00 | 0.00 | 53 | 1015.3 |
| 20260507120004 | 62 | 189 | 3.5 | 7.8 | 0.00 | 0.00 | 0.00 | 51 | 1015.5 |
| 20260507115503 | 62 | 180 | 3.5 | 7.8 | 0.00 | 0.00 | 0.00 | 52 | 1015.6 |
| 20260507115004 | 61 | 151 | 2.6 | 7.8 | 0.00 | 0.00 | 0.00 | 54 | 1015.6 |
| 20260507114503 | 61 | 146 | 2.6 | 5.2 | 0.00 | 0.00 | 0.00 | 56 | 1015.6 |
| 20260507114003 | 61 | 168 | 3.5 | 7.8 | 0.00 | 0.00 | 0.00 | 56 | 1015.6 |
| 20260507113504 | 60 | 174 | 3.5 | 7.8 | 0.00 | 0.00 | 0.00 | 54 | 1015.6 |
| 20260507113218 | 60 | 181 | 2.6 | 7.8 | 0.00 | 0.00 | 0.00 | 54 | 1015.6 |
| 20260507112503 | 60 | 166 | 2.6 | 7.8 | 0.00 | 0.00 | 0.00 | 54 | 1015.7 |
| 20260507112003 | 60 | 154 | 2.6 | 7.8 | 0.00 | 0.00 | 0.00 | 56 | 1015.7 |
| 20260507111506 | 60 | 167 | 2.6 | 7.0 | 0.00 | 0.00 | 0.00 | 56 | 1015.7 |
| 20260507111004 | 60 | 167 | 3.5 | 7.8 | 0.00 | 0.00 | 0.00 | 57 | 1015.8 |
| 20260507110504 | 60 | 158 | 3.5 | 7.8 | 0.00 | 0.00 | 0.00 | 55 | 1015.7 |
| 20260507110005 | 60 | 120 | 2.6 | 7.8 | 0.00 | 0.00 | 0.00 | 57 | 1015.7 |
| 20260507105504 | 59 | 125 | 2.6 | 7.8 | 0.00 | 0.00 | 0.00 | 59 | 1015.7 |
| 20260507105003 | 58 | 163 | 2.6 | 5.2 | 0.00 | 0.00 | 0.00 | 60 | 1015.8 |
| 20260507104503 | 58 | 168 | 2.6 | 5.2 | 0.00 | 0.00 | 0.00 | 61 | 1015.8 |
| 20260507104003 | 58 | 169 | 3.5 | 7.8 | 0.00 | 0.00 | 0.00 | 60 | 1015.9 |
| 20260507103503 | 58 | 162 | 3.5 | 7.8 | 0.00 | 0.00 | 0.00 | 60 | 1015.9 |
| 20260507103003 | 58 | 129 | 2.6 | 7.0 | 0.00 | 0.00 | 0.00 | 60 | 1016.0 |
| 20260507102503 | 58 | 145 | 2.6 | 7.0 | 0.00 | 0.00 | 0.00 | 62 | 1016.0 |
| 20260507102006 | 57 | 164 | 3.5 | 7.0 | 0.00 | 0.00 | 0.00 | 62 | 1016.0 |
| 20260507101717 | 57 | 164 | 3.5 | 7.0 | 0.00 | 0.00 | 0.00 | 62 | 1016.0 |
| 20260507101003 | 57 | 149 | 2.6 | 8.7 | 0.00 | 0.00 | 0.00 | 62 | 1016.1 |
| 20260507100504 | 56 | 143 | 3.5 | 8.7 | 0.00 | 0.00 | 0.00 | 64 | 1016.2 |
| 20260507100003 | 56 | 139 | 2.6 | 7.0 | 0.00 | 0.00 | 0.00 | 64 | 1016.0 |
| 20260507095503 | 56 | 154 | 2.6 | 6.1 | 0.00 | 0.00 | 0.00 | 66 | 1016.1 |
| 20260507095003 | 55 | 163 | 2.6 | 6.1 | 0.00 | 0.00 | 0.00 | 66 | 1016.1 |
| 20260507094504 | 55 | 160 | 2.6 | 6.1 | 0.00 | 0.00 | 0.00 | 68 | 1016.1 |
| 20260507094218 | 55 | 156 | 2.6 | 6.1 | 0.00 | 0.00 | 0.00 | 68 | 1016.2 |
| 20260507093504 | 55 | 157 | 1.7 | 5.2 | 0.00 | 0.00 | 0.00 | 69 | 1016.2 |
| 20260507093004 | 54 | 148 | 2.6 | 6.1 | 0.00 | 0.00 | 0.00 | 69 | 1016.2 |
| 20260507092503 | 54 | 155 | 2.6 | 7.0 | 0.00 | 0.00 | 0.00 | 70 | 1016.2 |
| 20260507092219 | 54 | 163 | 3.5 | 7.8 | 0.00 | 0.00 | 0.00 | 70 | 1016.2 |
| 20260507091503 | 54 | 177 | 3.5 | 8.7 | 0.00 | 0.00 | 0.00 | 71 | 1016.2 |
| 20260507091003 | 54 | 173 | 2.6 | 8.7 | 0.00 | 0.00 | 0.00 | 71 | 1016.2 |
| 20260507090504 | 53 | 173 | 2.6 | 6.1 | 0.00 | 0.00 | 0.00 | 71 | 1016.2 |
| 20260507090217 | 53 | 171 | 2.6 | 6.1 | 0.00 | 0.00 | 0.00 | 72 | 1016.2 |
| 20260507085503 | 53 | 160 | 2.6 | 8.7 | 0.00 | 0.00 | 0.00 | 72 | 1016.3 |
| 20260507085003 | 53 | 161 | 2.6 | 8.7 | 0.00 | 0.00 | 0.00 | 72 | 1016.3 |
| 20260507084504 | 53 | 163 | 2.6 | 6.1 | 0.00 | 0.00 | 0.00 | 72 | 1016.3 |
| 20260507084217 | 53 | 165 | 2.6 | 6.1 | 0.00 | 0.00 | 0.00 | 72 | 1016.3 |
| 20260507083503 | 53 | 134 | 2.6 | 5.2 | 0.00 | 0.00 | 0.00 | 73 | 1016.2 |
| 20260507083004 | 52 | 123 | 1.7 | 5.2 | 0.00 | 0.00 | 0.00 | 74 | 1016.2 |
| 20260507082718 | 52 | 139 | 1.7 | 6.1 | 0.00 | 0.00 | 0.00 | 74 | 1016.2 |
| 20260507082004 | 52 | 151 | 1.7 | 6.1 | 0.00 | 0.00 | 0.00 | 76 | 1016.3 |
| 20260507081504 | 51 | 151 | 1.7 | 5.2 | 0.00 | 0.00 | 0.00 | 76 | 1016.3 |
| 20260507081003 | 50 | 155 | 1.7 | 5.2 | 0.00 | 0.00 | 0.00 | 78 | 1016.3 |
| 20260507080503 | 50 | 159 | 1.7 | 5.2 | 0.00 | 0.00 | 0.00 | 81 | 1016.3 |
| 20260507080005 | 49 | 149 | 1.7 | 4.3 | 0.00 | 0.00 | 0.00 | 84 | 1016.3 |
| 20260507075503 | 48 | 134 | 1.7 | 3.5 | 0.00 | 0.00 | 0.00 | 87 | 1016.3 |
| 20260507075003 | 46 | 109 | 0.9 | 3.5 | 0.00 | 0.00 | 0.00 | 89 | 1016.2 |
| 20260507074503 | 45 | 88 | 0.0 | 2.6 | 0.00 | 0.00 | 0.00 | 91 | 1016.3 |
| 20260507074003 | 45 | 134 | 0.9 | 2.6 | 0.00 | 0.00 | 0.00 | 92 | 1016.2 |
| 20260507073718 | 44 | 170 | 0.0 | 1.7 | 0.00 | 0.00 | 0.00 | 92 | 1016.1 |
| 20260507073003 | 44 | 153 | 0.9 | 3.5 | 0.00 | 0.00 | 0.00 | 93 | 1016.2 |
| 20260507072503 | 43 | 129 | 0.9 | 3.5 | 0.00 | 0.00 | 0.00 | 94 | 1016.2 |
| 20260507072004 | 43 | 88 | 0.9 | 2.6 | 0.00 | 0.00 | 0.00 | 95 | 1016.2 |
| 20260507071718 | 42 | 84 | 0.9 | 2.6 | 0.00 | 0.00 | 0.00 | 95 | 1016.1 |
| 20260507071003 | 42 | 146 | 0.0 | 1.7 | 0.00 | 0.00 | 0.00 | 96 | 1016.1 |
| 20260507070503 | 41 | 136 | 0.0 | 1.7 | 0.00 | 0.00 | 0.00 | 96 | 1016.1 |
| 20260507070005 | 41 | 54 | 0.0 | 1.7 | 0.00 | 0.00 | 0.00 | 96 | 1016.2 |
| 20260507065504 | 41 | 44 | 0.0 | 1.7 | 0.00 | 0.00 | 0.00 | 96 | 1016.2 |
| 20260507065004 | 40 | 22 | 0.0 | 1.7 | 0.00 | 0.00 | 0.00 | 96 | 1016.2 |
| 20260507064504 | 40 | 14 | 0.0 | 0.9 | 0.00 | 0.00 | 0.00 | 96 | 1016.2 |
| 20260507064004 | 40 | 13 | 0.0 | 0.9 | 0.00 | 0.00 | 0.00 | 96 | 1016.3 |
| 20260507063504 | 39 | 11 | 0.0 | 0.9 | 0.00 | 0.00 | 0.00 | 96 | 1016.3 |
| 20260507063004 | 39 | 10 | 0.0 | 0.9 | 0.00 | 0.00 | 0.00 | 96 | 1016.3 |
| 20260507062504 | 38 | 10 | 0.0 | 0.9 | 0.00 | 0.00 | 0.00 | 96 | 1016.3 |
| 20260507062004 | 38 | 10 | 0.0 | 0.9 | 0.00 | 0.00 | 0.00 | 96 | 1016.2 |
| 20260507061503 | 38 | 10 | 0.0 | 0.9 | 0.00 | 0.00 | 0.00 | 96 | 1016.2 |
| 20260507061003 | 37 | 18 | 0.0 | 1.7 | 0.00 | 0.00 | 0.00 | 96 | 1016.2 |
| 20260507060504 | 36 | 19 | 0.0 | 1.7 | 0.00 | 0.00 | 0.00 | 96 | 1016.2 |
| 20260507060003 | 36 | 75 | 0.0 | 0.9 | 0.00 | 0.00 | 0.00 | 96 | 1016.2 |
| 20260507055717 | 36 | 75 | 0.0 | 0.9 | 0.00 | 0.00 | 0.00 | 96 | 1016.0 |
| 20260507055003 | 35 | 75 | 0.0 | 0.9 | 0.00 | 0.00 | 0.00 | 95 | 1016.0 |
| 20260507054503 | 35 | 75 | 0.0 | 1.7 | 0.00 | 0.00 | 0.00 | 95 | 1016.0 |
| 20260507054003 | 34 | 75 | 0.0 | 1.7 | 0.00 | 0.00 | 0.00 | 95 | 1016.0 |
| 20260507053719 | 34 | 75 | 0.0 | 1.7 | 0.00 | 0.00 | 0.00 | 95 | 1016.1 |
| 20260507053005 | 34 | 75 | 0.0 | 0.9 | 0.00 | 0.00 | 0.00 | 94 | 1016.0 |
| 20260507052717 | 34 | 75 | 0.0 | 0.9 | 0.00 | 0.00 | 0.00 | 94 | 1016.0 |
| 20260507052003 | 34 | 76 | 0.0 | 1.7 | 0.00 | 0.00 | 0.00 | 94 | 1016.0 |
| 20260507051504 | 34 | 93 | 0.9 | 1.7 | 0.00 | 0.00 | 0.00 | 94 | 1016.0 |
| 20260507051218 | 34 | 93 | 0.9 | 1.7 | 0.00 | 0.00 | 0.00 | 95 | 1016.0 |
| 20260507050504 | 34 | 0 | 0.0 | 0.0 | 0.00 | 0.00 | 0.00 | 94 | 1015.9 |
| 20260507050218 | 33 | 148 | 0.0 | 0.9 | 0.00 | 0.00 | 0.00 | 94 | 1015.9 |
| 20260507045503 | 33 | 149 | 0.0 | 0.9 | 0.00 | 0.00 | 0.00 | 94 | 1015.8 |
| 20260507045003 | 33 | 149 | 0.0 | 0.9 | 0.00 | 0.00 | 0.00 | 94 | 1015.8 |
| 20260507044503 | 33 | 145 | 0.0 | 1.7 | 0.00 | 0.00 | 0.00 | 94 | 1015.7 |
| 20260507044003 | 33 | 145 | 0.0 | 1.7 | 0.00 | 0.00 | 0.00 | 94 | 1015.9 |
| 20260507043503 | 33 | 0 | 0.0 | 0.0 | 0.00 | 0.00 | 0.00 | 93 | 1015.7 |
| 20260507043004 | 33 | 0 | 0.0 | 0.0 | 0.00 | 0.00 | 0.00 | 93 | 1015.7 |
| 20260507042718 | 33 | 33 | 0.0 | 0.9 | 0.00 | 0.00 | 0.00 | 93 | 1015.7 |
| 20260507042217 | 33 | 33 | 0.0 | 0.9 | 0.00 | 0.00 | 0.00 | 93 | 1015.7 |
| 20260507041504 | 33 | 33 | 0.0 | 0.9 | 0.00 | 0.00 | 0.00 | 93 | 1015.7 |
| 20260507041003 | 33 | 33 | 0.0 | 0.9 | 0.00 | 0.00 | 0.00 | 93 | 1015.7 |
| 20260507040718 | 33 | 33 | 0.0 | 0.9 | 0.00 | 0.00 | 0.00 | 93 | 1015.7 |
| 20260507040005 | 33 | 0 | 0.0 | 0.0 | 0.00 | 0.00 | 0.00 | 93 | 1015.8 |
| 20260507035718 | 33 | 0 | 0.0 | 0.0 | 0.00 | 0.00 | 0.00 | 93 | 1015.7 |
| 20260507035003 | 33 | 0 | 0.0 | 0.0 | 0.00 | 0.00 | 0.00 | 93 | 1015.8 |
| 20260507034503 | 33 | 0 | 0.0 | 0.0 | 0.00 | 0.00 | 0.00 | 93 | 1015.8 |
| 20260507034003 | 34 | 0 | 0.0 | 0.0 | 0.00 | 0.00 | 0.00 | 93 | 1015.9 |
| 20260507033718 | 34 | 0 | 0.0 | 0.0 | 0.00 | 0.00 | 0.00 | 93 | 1015.9 |
| 20260507033003 | 34 | 33 | 0.0 | 0.9 | 0.00 | 0.00 | 0.00 | 93 | 1015.9 |
| 20260507032504 | 34 | 33 | 0.0 | 0.9 | 0.00 | 0.00 | 0.00 | 93 | 1015.9 |
| 20260507032004 | 34 | 33 | 0.0 | 0.9 | 0.00 | 0.00 | 0.00 | 93 | 1015.9 |
| 20260507031504 | 34 | 33 | 0.0 | 0.9 | 0.00 | 0.00 | 0.00 | 93 | 1016.0 |
| 20260507031004 | 34 | 0 | 0.0 | 0.0 | 0.00 | 0.00 | 0.00 | 93 | 1016.1 |
| 20260507030504 | 34 | 0 | 0.0 | 0.0 | 0.00 | 0.00 | 0.00 | 93 | 1016.1 |
| 20260507030004 | 34 | 33 | 0.0 | 0.9 | 0.00 | 0.00 | 0.00 | 93 | 1016.1 |
| 20260507025503 | 34 | 33 | 0.0 | 1.7 | 0.00 | 0.00 | 0.00 | 93 | 1016.1 |
| 20260507025219 | 34 | 33 | 0.0 | 1.7 | 0.00 | 0.00 | 0.00 | 93 | 1016.1 |
| 20260507024504 | 35 | 0 | 0.0 | 0.0 | 0.00 | 0.00 | 0.00 | 93 | 1016.0 |
| 20260507024217 | 35 | 0 | 0.0 | 0.0 | 0.00 | 0.00 | 0.00 | 93 | 1015.9 |
| 20260507023504 | 35 | 33 | 0.0 | 0.9 | 0.00 | 0.00 | 0.00 | 93 | 1016.0 |
| 20260507023004 | 35 | 33 | 0.0 | 0.9 | 0.00 | 0.00 | 0.00 | 93 | 1015.9 |
| 20260507022504 | 35 | 33 | 0.0 | 0.9 | 0.00 | 0.00 | 0.00 | 93 | 1015.8 |
| 20260507022003 | 35 | 33 | 0.0 | 0.9 | 0.00 | 0.00 | 0.00 | 93 | 1015.9 |
| 20260507021503 | 35 | 43 | 0.0 | 1.7 | 0.00 | 0.00 | 0.00 | 93 | 1015.9 |
| 20260507021003 | 35 | 48 | 0.9 | 1.7 | 0.00 | 0.00 | 0.00 | 93 | 1015.9 |
| 20260507020504 | 35 | 52 | 0.0 | 0.9 | 0.00 | 0.00 | 0.00 | 93 | 1015.9 |
| 20260507020004 | 35 | 52 | 0.0 | 0.9 | 0.00 | 0.00 | 0.00 | 93 | 1015.9 |
| 20260507015718 | 35 | 52 | 0.0 | 0.9 | 0.00 | 0.00 | 0.00 | 93 | 1016.0 |
| 20260507015218 | 35 | 52 | 0.0 | 0.9 | 0.00 | 0.00 | 0.00 | 93 | 1015.9 |
| 20260507014504 | 35 | 52 | 0.0 | 0.9 | 0.00 | 0.00 | 0.00 | 93 | 1016.0 |
| 20260507014003 | 35 | 52 | 0.0 | 0.9 | 0.00 | 0.00 | 0.00 | 93 | 1016.1 |
| 20260507013503 | 35 | 52 | 0.0 | 0.9 | 0.00 | 0.00 | 0.00 | 93 | 1016.1 |
| 20260507013004 | 35 | 52 | 0.0 | 0.9 | 0.00 | 0.00 | 0.00 | 93 | 1016.1 |
| 20260507012717 | 35 | 52 | 0.0 | 0.9 | 0.00 | 0.00 | 0.00 | 93 | 1016.1 |
| 20260507012003 | 34 | 52 | 0.0 | 0.9 | 0.00 | 0.00 | 0.00 | 92 | 1016.1 |
| 20260507011503 | 35 | 0 | 0.0 | 0.0 | 0.00 | 0.00 | 0.00 | 92 | 1016.1 |
| 20260507011218 | 35 | 0 | 0.0 | 0.0 | 0.00 | 0.00 | 0.00 | 92 | 1016.0 |
| 20260507010503 | 35 | 52 | 0.0 | 0.9 | 0.00 | 0.00 | 0.00 | 92 | 1016.0 |
| 20260507010218 | 35 | 52 | 0.0 | 0.9 | 0.00 | 0.00 | 0.00 | 92 | 1016.1 |
| 20260507005717 | 35 | 52 | 0.0 | 0.9 | 0.00 | 0.00 | 0.00 | 92 | 1016.0 |
| 20260507005003 | 35 | 52 | 0.0 | 0.9 | 0.00 | 0.00 | 0.00 | 92 | 1016.0 |
| 20260507004503 | 36 | 52 | 0.0 | 0.9 | 0.00 | 0.00 | 0.00 | 92 | 1016.0 |
| 20260507004004 | 36 | 52 | 0.0 | 0.9 | 0.00 | 0.00 | 0.00 | 92 | 1015.9 |
| 20260507003504 | 36 | 0 | 0.0 | 0.0 | 0.00 | 0.00 | 0.00 | 92 | 1016.0 |
| 20260507003218 | 36 | 0 | 0.0 | 0.0 | 0.00 | 0.00 | 0.00 | 91 | 1016.0 |
| 20260507002504 | 36 | 52 | 0.0 | 0.9 | 0.00 | 0.00 | 0.00 | 91 | 1016.1 |
| 20260507002218 | 36 | 52 | 0.0 | 1.7 | 0.00 | 0.00 | 0.00 | 92 | 1016.1 |
| 20260507001503 | 36 | 52 | 0.9 | 1.7 | 0.00 | 0.00 | 0.00 | 91 | 1016.2 |
| 20260507001003 | 36 | 52 | 0.0 | 1.7 | 0.00 | 0.00 | 0.00 | 91 | 1016.3 |
| 20260507000503 | 37 | 52 | 0.0 | 0.9 | 0.00 | 0.00 | 0.00 | 91 | 1016.2 |
| 20260507000219 | 37 | 52 | 0.0 | 0.9 | 0.00 | 0.00 | 0.00 | 91 | 1016.2 |
| 20260506235504 | 37 | 0 | 0.0 | 0.0 | 0.00 | 0.00 | 0.00 | 91 | 1016.3 |
| 20260506235003 | 37 | 0 | 0.0 | 0.0 | 0.00 | 0.00 | 0.00 | 91 | 1016.2 |
| 20260506234503 | 37 | 0 | 0.0 | 0.0 | 0.00 | 0.00 | 0.00 | 91 | 1016.1 |
| 20260506234004 | 37 | 0 | 0.0 | 0.0 | 0.00 | 0.00 | 0.00 | 90 | 1016.2 |
| 20260506233504 | 37 | 0 | 0.0 | 0.0 | 0.00 | 0.00 | 0.00 | 90 | 1016.2 |
| 20260506233218 | 38 | 0 | 0.0 | 0.0 | 0.00 | 0.00 | 0.00 | 91 | 1016.2 |
| 20260506232504 | 38 | 0 | 0.0 | 0.0 | 0.00 | 0.00 | 0.00 | 90 | 1016.1 |
| 20260506232003 | 38 | 0 | 0.0 | 0.0 | 0.00 | 0.00 | 0.00 | 90 | 1016.2 |
| 20260506231503 | 38 | 52 | 0.0 | 0.9 | 0.00 | 0.00 | 0.00 | 90 | 1016.1 |
| 20260506231218 | 38 | 52 | 0.0 | 0.9 | 0.00 | 0.00 | 0.00 | 90 | 1016.1 |
| 20260506230504 | 38 | 52 | 0.0 | 0.9 | 0.00 | 0.00 | 0.00 | 90 | 1016.1 |
| 20260506230004 | 39 | 0 | 0.0 | 0.0 | 0.00 | 0.00 | 0.00 | 90 | 1016.2 |
| 20260506225504 | 39 | 0 | 0.0 | 0.0 | 0.00 | 0.00 | 0.00 | 90 | 1016.2 |
| 20260506225003 | 39 | 53 | 0.0 | 1.7 | 0.00 | 0.00 | 0.00 | 90 | 1016.2 |
| 20260506224716 | 39 | 55 | 0.9 | 1.7 | 0.00 | 0.00 | 0.00 | 90 | 1016.2 |
| 20260506224003 | 39 | 63 | 0.9 | 1.7 | 0.00 | 0.00 | 0.00 | 90 | 1016.3 |
| 20260506223503 | 39 | 66 | 0.0 | 0.9 | 0.00 | 0.00 | 0.00 | 90 | 1016.3 |
| 20260506223004 | 39 | 66 | 0.0 | 1.7 | 0.00 | 0.00 | 0.00 | 89 | 1016.3 |
| 20260506222504 | 40 | 66 | 0.0 | 1.7 | 0.00 | 0.00 | 0.00 | 89 | 1016.1 |
| 20260506222003 | 40 | 66 | 0.0 | 0.9 | 0.00 | 0.00 | 0.00 | 89 | 1016.0 |
| 20260506221504 | 40 | 0 | 0.0 | 0.0 | 0.00 | 0.00 | 0.00 | 88 | 1016.1 |
| 20260506221004 | 40 | 0 | 0.0 | 0.0 | 0.00 | 0.00 | 0.00 | 88 | 1016.0 |
| 20260506220503 | 40 | 0 | 0.0 | 0.0 | 0.00 | 0.00 | 0.00 | 87 | 1015.9 |
| 20260506220004 | 41 | 0 | 0.0 | 0.0 | 0.00 | 0.00 | 0.00 | 87 | 1016.0 |
| 20260506215504 | 41 | 0 | 0.0 | 0.0 | 0.00 | 0.00 | 0.00 | 87 | 1015.9 |
| 20260506215003 | 41 | 0 | 0.0 | 0.0 | 0.00 | 0.00 | 0.00 | 87 | 1015.9 |
| 20260506214718 | 41 | 0 | 0.0 | 0.0 | 0.00 | 0.00 | 0.00 | 87 | 1015.8 |
| 20260506214003 | 42 | 0 | 0.0 | 0.0 | 0.00 | 0.00 | 0.00 | 86 | 1015.8 |
| 20260506213504 | 42 | 0 | 0.0 | 0.0 | 0.00 | 0.00 | 0.00 | 86 | 1015.7 |
| 20260506213003 | 42 | 66 | 0.0 | 0.9 | 0.00 | 0.00 | 0.00 | 86 | 1015.7 |
| 20260506212503 | 42 | 66 | 0.0 | 1.7 | 0.00 | 0.00 | 0.00 | 86 | 1015.6 |
| 20260506212003 | 43 | 67 | 0.0 | 1.7 | 0.00 | 0.00 | 0.00 | 85 | 1015.6 |
| 20260506211503 | 43 | 67 | 0.0 | 0.9 | 0.00 | 0.00 | 0.00 | 85 | 1015.5 |
| 20260506211004 | 43 | 64 | 0.9 | 2.6 | 0.00 | 0.00 | 0.00 | 85 | 1015.5 |
| 20260506210718 | 43 | 63 | 0.0 | 2.6 | 0.00 | 0.00 | 0.00 | 84 | 1015.5 |
| 20260506210003 | 44 | 58 | 0.0 | 1.7 | 0.00 | 0.00 | 0.00 | 84 | 1015.5 |
| 20260506205503 | 44 | 81 | 0.9 | 2.6 | 0.00 | 0.00 | 0.00 | 84 | 1015.5 |
| 20260506205219 | 44 | 89 | 0.9 | 2.6 | 0.00 | 0.00 | 0.00 | 83 | 1015.5 |
| 20260506204503 | 44 | 86 | 0.0 | 2.6 | 0.00 | 0.00 | 0.00 | 83 | 1015.4 |
| 20260506204004 | 44 | 70 | 0.0 | 1.7 | 0.00 | 0.00 | 0.00 | 82 | 1015.4 |
| 20260506203503 | 44 | 67 | 0.9 | 1.7 | 0.00 | 0.00 | 0.00 | 82 | 1015.5 |
| 20260506203004 | 44 | 65 | 0.9 | 1.7 | 0.00 | 0.00 | 0.00 | 81 | 1015.5 |
| 20260506202504 | 45 | 65 | 0.9 | 1.7 | 0.00 | 0.00 | 0.00 | 80 | 1015.6 |
| 20260506202003 | 45 | 65 | 0.0 | 1.7 | 0.00 | 0.00 | 0.00 | 80 | 1015.5 |
| 20260506201504 | 45 | 75 | 0.0 | 0.9 | 0.00 | 0.00 | 0.00 | 79 | 1015.5 |
| 20260506201004 | 45 | 78 | 0.9 | 3.5 | 0.00 | 0.00 | 0.00 | 79 | 1015.4 |
| 20260506200503 | 45 | 70 | 0.9 | 3.5 | 0.00 | 0.00 | 0.00 | 78 | 1015.3 |
| 20260506200003 | 46 | 71 | 0.9 | 2.6 | 0.00 | 0.00 | 0.00 | 78 | 1015.3 |
| 20260506195504 | 46 | 80 | 0.9 | 3.5 | 0.00 | 0.00 | 0.00 | 77 | 1015.3 |
| 20260506195003 | 46 | 81 | 0.9 | 3.5 | 0.00 | 0.00 | 0.00 | 77 | 1015.3 |
| 20260506194717 | 46 | 80 | 0.9 | 3.5 | 0.00 | 0.00 | 0.00 | 76 | 1015.2 |
| 20260506194004 | 46 | 74 | 0.9 | 3.5 | 0.00 | 0.00 | 0.00 | 76 | 1015.2 |
| 20260506193719 | 47 | 73 | 1.7 | 3.5 | 0.00 | 0.00 | 0.00 | 76 | 1015.2 |
| 20260506193004 | 47 | 74 | 1.7 | 4.3 | 0.00 | 0.00 | 0.00 | 76 | 1015.2 |
| 20260506192504 | 47 | 73 | 1.7 | 5.2 | 0.00 | 0.00 | 0.00 | 76 | 1015.1 |
| 20260506192218 | 47 | 71 | 1.7 | 5.2 | 0.00 | 0.00 | 0.00 | 76 | 1015.1 |
| 20260506191504 | 48 | 65 | 1.7 | 5.2 | 0.00 | 0.00 | 0.00 | 76 | 1015.1 |
| 20260506191004 | 48 | 69 | 1.7 | 3.5 | 0.00 | 0.00 | 0.00 | 76 | 1015.0 |
| 20260506190504 | 48 | 72 | 0.9 | 3.5 | 0.00 | 0.00 | 0.00 | 75 | 1015.0 |
| 20260506190005 | 48 | 70 | 1.7 | 6.1 | 0.00 | 0.00 | 0.00 | 75 | 1015.1 |
| 20260506185504 | 48 | 76 | 1.7 | 6.1 | 0.00 | 0.00 | 0.00 | 75 | 1015.0 |
| 20260506185003 | 48 | 80 | 2.6 | 6.1 | 0.00 | 0.00 | 0.00 | 74 | 1015.0 |
| 20260506184717 | 48 | 80 | 2.6 | 7.0 | 0.00 | 0.00 | 0.00 | 74 | 1015.0 |
| 20260506184004 | 48 | 71 | 1.7 | 7.0 | 0.00 | 0.00 | 0.00 | 74 | 1015.0 |
| 20260506183719 | 49 | 69 | 1.7 | 4.3 | 0.00 | 0.00 | 0.00 | 74 | 1015.0 |
| 20260506183218 | 49 | 69 | 1.7 | 5.2 | 0.00 | 0.00 | 0.00 | 74 | 1015.0 |
| 20260506182504 | 49 | 73 | 1.7 | 6.1 | 0.00 | 0.00 | 0.00 | 73 | 1015.0 |
| 20260506182004 | 49 | 67 | 1.7 | 6.1 | 0.00 | 0.00 | 0.00 | 73 | 1015.0 |
| 20260506181503 | 49 | 60 | 1.7 | 5.2 | 0.00 | 0.00 | 0.00 | 73 | 1014.9 |
| 20260506181003 | 49 | 65 | 1.7 | 5.2 | 0.00 | 0.00 | 0.00 | 72 | 1014.9 |
| 20260506180504 | 49 | 70 | 1.7 | 6.1 | 0.00 | 0.00 | 0.00 | 72 | 1014.9 |
| 20260506180218 | 50 | 69 | 1.7 | 6.1 | 0.00 | 0.00 | 0.00 | 72 | 1014.9 |
| 20260506175503 | 50 | 67 | 1.7 | 6.1 | 0.00 | 0.00 | 0.00 | 72 | 1014.8 |
| 20260506175004 | 50 | 62 | 1.7 | 6.1 | 0.00 | 0.00 | 0.00 | 72 | 1014.7 |
| 20260506174504 | 50 | 49 | 1.7 | 4.3 | 0.00 | 0.00 | 0.00 | 73 | 1014.8 |
| 20260506174003 | 50 | 37 | 1.7 | 4.3 | 0.00 | 0.00 | 0.00 | 73 | 1014.8 |
| 20260506173504 | 50 | 54 | 2.6 | 6.1 | 0.00 | 0.00 | 0.00 | 72 | 1014.8 |
| 20260506173003 | 50 | 67 | 2.6 | 6.1 | 0.00 | 0.00 | 0.00 | 71 | 1014.7 |
| 20260506172504 | 50 | 66 | 2.6 | 6.1 | 0.00 | 0.00 | 0.00 | 71 | 1014.8 |
| 20260506172003 | 50 | 71 | 1.7 | 5.2 | 0.00 | 0.00 | 0.00 | 72 | 1014.7 |
| 20260506171718 | 50 | 71 | 1.7 | 5.2 | 0.00 | 0.00 | 0.00 | 71 | 1014.7 |
| 20260506171003 | 50 | 69 | 1.7 | 6.1 | 0.00 | 0.00 | 0.00 | 71 | 1014.7 |
| 20260506170503 | 51 | 60 | 1.7 | 6.1 | 0.00 | 0.00 | 0.00 | 70 | 1014.7 |
| 20260506170003 | 51 | 56 | 1.7 | 7.8 | 0.00 | 0.00 | 0.00 | 70 | 1014.7 |
| 20260506165718 | 51 | 58 | 2.6 | 7.8 | 0.00 | 0.00 | 0.00 | 69 | 1014.7 |
| 20260506165003 | 51 | 69 | 2.6 | 6.1 | 0.00 | 0.00 | 0.00 | 69 | 1014.6 |
| 20260506164503 | 51 | 58 | 2.6 | 6.1 | 0.00 | 0.00 | 0.00 | 69 | 1014.6 |
| 20260506164004 | 51 | 55 | 2.6 | 6.1 | 0.00 | 0.00 | 0.00 | 69 | 1014.6 |
| 20260506163504 | 51 | 64 | 2.6 | 7.8 | 0.00 | 0.00 | 0.00 | 69 | 1014.6 |
| 20260506163003 | 51 | 62 | 2.6 | 8.7 | 0.00 | 0.00 | 0.00 | 68 | 1014.6 |
| 20260506162503 | 51 | 62 | 2.6 | 8.7 | 0.00 | 0.00 | 0.00 | 69 | 1014.6 |
| 20260506162004 | 51 | 66 | 2.6 | 7.8 | 0.00 | 0.00 | 0.00 | 70 | 1014.7 |
| 20260506161503 | 51 | 69 | 2.6 | 6.1 | 0.00 | 0.00 | 0.00 | 70 | 1014.6 |
| 20260506161003 | 51 | 64 | 2.6 | 9.6 | 0.00 | 0.00 | 0.00 | 69 | 1014.6 |
| 20260506160504 | 51 | 64 | 3.5 | 9.6 | 0.00 | 0.00 | 0.00 | 68 | 1014.6 |
| 20260506160004 | 51 | 68 | 2.6 | 7.8 | 0.00 | 0.00 | 0.00 | 68 | 1014.6 |